sensor_id;sensor_type;location;lat;lon;timestamp;temperature;humidity
12115;DHT22;6121;49.810;6.418;2024-03-23T00:53:38;9.60;99.90
12115;DHT22;6121;49.810;6.418;2024-03-23T00:56:04;9.70;99.90
12115;DHT22;6121;49.810;6.418;2024-03-23T00:58:30;9.60;99.90
12115;DHT22;6121;49.810;6.418;2024-03-23T01:00:56;9.60;99.90
12115;DHT22;6121;49.810;6.418;2024-03-23T01:03:22;9.70;99.90
12115;DHT22;6121;49.810;6.418;2024-03-23T01:05:48;9.80;99.90
12115;DHT22;6121;49.810;6.418;2024-03-23T01:08:14;9.90;99.90
12115;DHT22;6121;49.810;6.418;2024-03-23T01:10:40;9.80;99.90
12115;DHT22;6121;49.810;6.418;2024-03-23T01:13:06;9.70;99.90
12115;DHT22;6121;49.810;6.418;2024-03-23T01:15:32;9.90;99.90
12115;DHT22;6121;49.810;6.418;2024-03-23T01:17:58;10.00;99.90
12115;DHT22;6121;49.810;6.418;2024-03-23T01:20:24;10.00;99.90
12115;DHT22;6121;49.810;6.418;2024-03-23T01:22:49;10.00;99.90
12115;DHT22;6121;49.810;6.418;2024-03-23T01:25:15;10.00;99.90
12115;DHT22;6121;49.810;6.418;2024-03-23T01:27:41;10.00;99.90
12115;DHT22;6121;49.810;6.418;2024-03-23T01:30:07;10.00;99.90
12115;DHT22;6121;49.810;6.418;2024-03-23T01:32:33;10.10;99.90
12115;DHT22;6121;49.810;6.418;2024-03-23T01:34:59;10.10;99.90
12115;DHT22;6121;49.810;6.418;2024-03-23T01:37:25;10.10;99.90
12115;DHT22;6121;49.810;6.418;2024-03-23T01:39:51;10.10;99.90
12115;DHT22;6121;49.810;6.418;2024-03-23T01:42:16;10.20;99.90
12115;DHT22;6121;49.810;6.418;2024-03-23T01:44:42;10.10;99.90
12115;DHT22;6121;49.810;6.418;2024-03-23T01:47:08;10.10;99.90
12115;DHT22;6121;49.810;6.418;2024-03-23T01:49:35;10.10;99.90
12115;DHT22;6121;49.810;6.418;2024-03-23T01:52:02;10.20;99.90
12115;DHT22;6121;49.810;6.418;2024-03-23T01:54:29;10.10;99.90
12115;DHT22;6121;49.810;6.418;2024-03-23T01:56:56;10.00;99.90
12115;DHT22;6121;49.810;6.418;2024-03-23T01:59:22;9.90;99.90
12115;DHT22;6121;49.810;6.418;2024-03-23T02:01:48;9.80;99.90
12115;DHT22;6121;49.810;6.418;2024-03-23T02:04:14;9.50;99.90
12115;DHT22;6121;49.810;6.418;2024-03-23T02:06:40;9.60;99.90
12115;DHT22;6121;49.810;6.418;2024-03-23T02:09:06;9.40;99.90
12115;DHT22;6121;49.810;6.418;2024-03-23T02:11:31;9.40;99.90
12115;DHT22;6121;49.810;6.418;2024-03-23T02:13:57;9.30;99.90
12115;DHT22;6121;49.810;6.418;2024-03-23T02:16:23;9.30;99.90
12115;DHT22;6121;49.810;6.418;2024-03-23T02:18:49;9.30;99.90
12115;DHT22;6121;49.810;6.418;2024-03-23T02:21:15;9.30;99.90
12115;DHT22;6121;49.810;6.418;2024-03-23T02:23:41;9.20;99.90
12115;DHT22;6121;49.810;6.418;2024-03-23T02:26:07;9.20;99.90
12115;DHT22;6121;49.810;6.418;2024-03-23T02:28:33;9.20;99.90
12115;DHT22;6121;49.810;6.418;2024-03-23T02:30:59;9.30;99.90
12115;DHT22;6121;49.810;6.418;2024-03-23T02:33:26;9.20;99.90
12115;DHT22;6121;49.810;6.418;2024-03-23T02:35:56;9.20;99.90
12115;DHT22;6121;49.810;6.418;2024-03-23T02:38:22;9.30;99.90
12115;DHT22;6121;49.810;6.418;2024-03-23T02:40:48;9.10;99.90
12115;DHT22;6121;49.810;6.418;2024-03-23T02:43:13;9.20;99.90
12115;DHT22;6121;49.810;6.418;2024-03-23T02:45:39;9.10;99.90
12115;DHT22;6121;49.810;6.418;2024-03-23T02:48:05;9.00;99.90
12115;DHT22;6121;49.810;6.418;2024-03-23T02:50:31;9.00;99.90
12115;DHT22;6121;49.810;6.418;2024-03-23T02:52:57;9.20;99.90
12115;DHT22;6121;49.810;6.418;2024-03-23T02:55:23;8.90;99.90
12115;DHT22;6121;49.810;6.418;2024-03-23T02:57:49;9.00;99.90
12115;DHT22;6121;49.810;6.418;2024-03-23T03:00:15;9.10;99.90
12115;DHT22;6121;49.810;6.418;2024-03-23T03:02:40;8.90;99.90
12115;DHT22;6121;49.810;6.418;2024-03-23T03:05:07;9.00;99.90
12115;DHT22;6121;49.810;6.418;2024-03-23T03:07:34;9.00;99.90
12115;DHT22;6121;49.810;6.418;2024-03-23T03:10:00;9.10;99.90
12115;DHT22;6121;49.810;6.418;2024-03-23T03:12:26;9.00;99.90
12115;DHT22;6121;49.810;6.418;2024-03-23T03:14:52;8.70;99.90
12115;DHT22;6121;49.810;6.418;2024-03-23T03:17:18;8.70;99.90
12115;DHT22;6121;49.810;6.418;2024-03-23T03:19:44;8.60;99.90
12115;DHT22;6121;49.810;6.418;2024-03-23T03:22:11;8.80;99.90
12115;DHT22;6121;49.810;6.418;2024-03-23T03:24:37;8.60;99.90
12115;DHT22;6121;49.810;6.418;2024-03-23T03:27:03;8.70;99.90
12115;DHT22;6121;49.810;6.418;2024-03-23T03:29:29;8.60;99.90
12115;DHT22;6121;49.810;6.418;2024-03-23T03:32:04;8.70;99.90
12115;DHT22;6121;49.810;6.418;2024-03-23T03:34:30;8.70;99.90
12115;DHT22;6121;49.810;6.418;2024-03-23T03:36:56;8.70;99.90
12115;DHT22;6121;49.810;6.418;2024-03-23T03:39:23;8.70;99.90
12115;DHT22;6121;49.810;6.418;2024-03-23T03:41:50;8.70;99.90
12115;DHT22;6121;49.810;6.418;2024-03-23T03:44:16;8.80;99.90
12115;DHT22;6121;49.810;6.418;2024-03-23T03:46:42;8.70;99.90
12115;DHT22;6121;49.810;6.418;2024-03-23T03:49:08;8.60;99.90
12115;DHT22;6121;49.810;6.418;2024-03-23T03:51:34;8.60;99.90
12115;DHT22;6121;49.810;6.418;2024-03-23T03:54:00;8.70;99.90
12115;DHT22;6121;49.810;6.418;2024-03-23T03:56:26;8.70;99.90
12115;DHT22;6121;49.810;6.418;2024-03-23T03:58:53;8.70;99.90
12115;DHT22;6121;49.810;6.418;2024-03-23T04:01:19;8.60;99.90
12115;DHT22;6121;49.810;6.418;2024-03-23T04:03:46;8.30;99.90
12115;DHT22;6121;49.810;6.418;2024-03-23T04:06:13;8.60;99.90
12115;DHT22;6121;49.810;6.418;2024-03-23T04:08:44;8.20;99.90
12115;DHT22;6121;49.810;6.418;2024-03-23T04:11:09;8.30;99.90
12115;DHT22;6121;49.810;6.418;2024-03-23T04:13:35;8.30;99.90
12115;DHT22;6121;49.810;6.418;2024-03-23T04:16:01;8.20;99.90
12115;DHT22;6121;49.810;6.418;2024-03-23T04:18:27;8.10;99.90
12115;DHT22;6121;49.810;6.418;2024-03-23T04:20:53;8.20;99.90
12115;DHT22;6121;49.810;6.418;2024-03-23T04:23:19;8.30;99.90
12115;DHT22;6121;49.810;6.418;2024-03-23T04:25:46;8.10;99.90
12115;DHT22;6121;49.810;6.418;2024-03-23T04:28:12;8.00;99.90
12115;DHT22;6121;49.810;6.418;2024-03-23T04:30:38;8.00;99.90
12115;DHT22;6121;49.810;6.418;2024-03-23T04:33:04;8.00;99.90
12115;DHT22;6121;49.810;6.418;2024-03-23T04:35:30;8.10;99.90
12115;DHT22;6121;49.810;6.418;2024-03-23T04:37:56;8.10;99.90
12115;DHT22;6121;49.810;6.418;2024-03-23T04:40:25;8.00;99.90
12115;DHT22;6121;49.810;6.418;2024-03-23T04:42:51;7.80;99.90
12115;DHT22;6121;49.810;6.418;2024-03-23T04:45:17;7.70;99.90
12115;DHT22;6121;49.810;6.418;2024-03-23T04:47:43;7.80;99.90
12115;DHT22;6121;49.810;6.418;2024-03-23T04:50:09;7.80;99.90
12115;DHT22;6121;49.810;6.418;2024-03-23T04:52:38;8.00;99.90
12115;DHT22;6121;49.810;6.418;2024-03-23T04:55:04;8.00;99.90
12115;DHT22;6121;49.810;6.418;2024-03-23T04:57:30;7.80;99.90
12115;DHT22;6121;49.810;6.418;2024-03-23T04:59:56;7.80;99.90
12115;DHT22;6121;49.810;6.418;2024-03-23T05:02:22;7.80;99.90
12115;DHT22;6121;49.810;6.418;2024-03-23T05:04:48;7.80;99.90
12115;DHT22;6121;49.810;6.418;2024-03-23T05:07:14;7.90;99.90
12115;DHT22;6121;49.810;6.418;2024-03-23T05:09:40;7.70;99.90
12115;DHT22;6121;49.810;6.418;2024-03-23T05:12:06;7.70;99.90
12115;DHT22;6121;49.810;6.418;2024-03-23T05:14:32;7.70;99.90
12115;DHT22;6121;49.810;6.418;2024-03-23T05:16:58;8.00;99.90
12115;DHT22;6121;49.810;6.418;2024-03-23T05:19:24;7.90;99.90
12115;DHT22;6121;49.810;6.418;2024-03-23T05:21:50;7.50;99.90
12115;DHT22;6121;49.810;6.418;2024-03-23T05:24:16;7.60;99.90
12115;DHT22;6121;49.810;6.418;2024-03-23T05:26:42;7.40;99.90
12115;DHT22;6121;49.810;6.418;2024-03-23T05:29:08;7.60;99.90
12115;DHT22;6121;49.810;6.418;2024-03-23T05:31:36;7.40;99.90
12115;DHT22;6121;49.810;6.418;2024-03-23T05:34:03;7.40;99.90
12115;DHT22;6121;49.810;6.418;2024-03-23T05:36:29;7.40;99.90
12115;DHT22;6121;49.810;6.418;2024-03-23T05:38:55;7.40;99.90
12115;DHT22;6121;49.810;6.418;2024-03-23T05:41:21;7.40;99.90
12115;DHT22;6121;49.810;6.418;2024-03-23T05:43:48;7.10;99.90
12115;DHT22;6121;49.810;6.418;2024-03-23T05:46:14;7.30;99.90
12115;DHT22;6121;49.810;6.418;2024-03-23T05:48:39;7.20;99.90
12115;DHT22;6121;49.810;6.418;2024-03-23T05:51:05;7.20;99.90
12115;DHT22;6121;49.810;6.418;2024-03-23T05:53:31;7.20;99.90
12115;DHT22;6121;49.810;6.418;2024-03-23T05:56:02;7.10;99.90
12115;DHT22;6121;49.810;6.418;2024-03-23T05:58:31;7.00;99.90
12115;DHT22;6121;49.810;6.418;2024-03-23T06:00:59;7.10;99.90
12115;DHT22;6121;49.810;6.418;2024-03-23T06:03:25;7.00;99.90
12115;DHT22;6121;49.810;6.418;2024-03-23T06:05:52;7.10;99.90
12115;DHT22;6121;49.810;6.418;2024-03-23T06:08:19;6.90;99.90
12115;DHT22;6121;49.810;6.418;2024-03-23T06:10:46;6.80;99.90
12115;DHT22;6121;49.810;6.418;2024-03-23T06:13:12;7.00;99.90
12115;DHT22;6121;49.810;6.418;2024-03-23T06:15:39;6.80;99.90
12115;DHT22;6121;49.810;6.418;2024-03-23T06:18:05;7.00;99.90
12115;DHT22;6121;49.810;6.418;2024-03-23T06:20:33;6.80;99.90
12115;DHT22;6121;49.810;6.418;2024-03-23T06:23:00;7.50;99.90
12115;DHT22;6121;49.810;6.418;2024-03-23T06:25:26;7.50;99.90
12115;DHT22;6121;49.810;6.418;2024-03-23T06:27:52;7.10;99.90
12115;DHT22;6121;49.810;6.418;2024-03-23T06:30:18;7.00;99.90
12115;DHT22;6121;49.810;6.418;2024-03-23T06:32:44;7.00;99.90
12115;DHT22;6121;49.810;6.418;2024-03-23T06:35:10;7.50;99.90
12115;DHT22;6121;49.810;6.418;2024-03-23T06:37:36;7.10;99.90
12115;DHT22;6121;49.810;6.418;2024-03-23T06:40:02;7.50;99.90
12115;DHT22;6121;49.810;6.418;2024-03-23T06:42:30;7.00;99.90
12115;DHT22;6121;49.810;6.418;2024-03-23T06:44:56;7.00;99.90
12115;DHT22;6121;49.810;6.418;2024-03-23T06:47:22;7.00;99.90
12115;DHT22;6121;49.810;6.418;2024-03-23T06:49:48;7.30;99.90
12115;DHT22;6121;49.810;6.418;2024-03-23T06:52:14;7.30;99.90
12115;DHT22;6121;49.810;6.418;2024-03-23T06:54:39;7.60;99.90
12115;DHT22;6121;49.810;6.418;2024-03-23T06:57:05;7.50;99.90
12115;DHT22;6121;49.810;6.418;2024-03-23T06:59:31;7.50;99.90
12115;DHT22;6121;49.810;6.418;2024-03-23T07:01:57;7.50;99.90
12115;DHT22;6121;49.810;6.418;2024-03-23T07:04:23;7.50;99.90
12115;DHT22;6121;49.810;6.418;2024-03-23T07:06:49;7.50;99.90
12115;DHT22;6121;49.810;6.418;2024-03-23T07:09:15;7.20;99.90
12115;DHT22;6121;49.810;6.418;2024-03-23T07:11:41;7.50;99.90
12115;DHT22;6121;49.810;6.418;2024-03-23T07:14:06;7.80;99.90
12115;DHT22;6121;49.810;6.418;2024-03-23T07:16:33;7.60;99.90
12115;DHT22;6121;49.810;6.418;2024-03-23T07:18:58;7.40;99.90
12115;DHT22;6121;49.810;6.418;2024-03-23T07:21:24;7.40;99.90
12115;DHT22;6121;49.810;6.418;2024-03-23T07:23:50;7.30;99.90
12115;DHT22;6121;49.810;6.418;2024-03-23T07:26:16;7.70;99.90
12115;DHT22;6121;49.810;6.418;2024-03-23T07:28:43;7.90;99.90
12115;DHT22;6121;49.810;6.418;2024-03-23T07:31:11;8.40;99.90
12115;DHT22;6121;49.810;6.418;2024-03-23T07:33:42;8.50;99.90
12115;DHT22;6121;49.810;6.418;2024-03-23T07:36:09;8.80;99.90
12115;DHT22;6121;49.810;6.418;2024-03-23T07:38:34;9.10;99.90
12115;DHT22;6121;49.810;6.418;2024-03-23T07:41:11;9.40;99.90
12115;DHT22;6121;49.810;6.418;2024-03-23T07:43:38;9.50;99.90
12115;DHT22;6121;49.810;6.418;2024-03-23T07:46:04;9.70;99.90
12115;DHT22;6121;49.810;6.418;2024-03-23T07:48:31;9.90;99.90
12115;DHT22;6121;49.810;6.418;2024-03-23T07:51:03;10.00;99.90
12115;DHT22;6121;49.810;6.418;2024-03-23T07:53:33;10.20;99.90
12115;DHT22;6121;49.810;6.418;2024-03-23T07:56:07;10.50;99.90
12115;DHT22;6121;49.810;6.418;2024-03-23T07:58:34;10.50;99.90
12115;DHT22;6121;49.810;6.418;2024-03-23T08:01:07;10.50;99.90
12115;DHT22;6121;49.810;6.418;2024-03-23T08:03:34;10.70;99.90
12115;DHT22;6121;49.810;6.418;2024-03-23T08:06:14;11.10;99.90
12115;DHT22;6121;49.810;6.418;2024-03-23T08:08:41;11.50;99.90
12115;DHT22;6121;49.810;6.418;2024-03-23T08:11:07;11.50;99.90
12115;DHT22;6121;49.810;6.418;2024-03-23T08:13:34;11.30;99.90
12115;DHT22;6121;49.810;6.418;2024-03-23T08:16:02;11.00;99.90
12115;DHT22;6121;49.810;6.418;2024-03-23T08:18:29;11.20;99.90
12115;DHT22;6121;49.810;6.418;2024-03-23T08:20:58;11.40;99.90
12115;DHT22;6121;49.810;6.418;2024-03-23T08:23:25;11.80;99.90
12115;DHT22;6121;49.810;6.418;2024-03-23T08:25:52;11.70;99.90
12115;DHT22;6121;49.810;6.418;2024-03-23T08:28:18;11.60;99.90
12115;DHT22;6121;49.810;6.418;2024-03-23T08:30:44;11.40;99.90
12115;DHT22;6121;49.810;6.418;2024-03-23T08:33:10;11.90;99.90
12115;DHT22;6121;49.810;6.418;2024-03-23T08:35:36;12.20;99.90
12115;DHT22;6121;49.810;6.418;2024-03-23T08:38:02;12.20;99.90
12115;DHT22;6121;49.810;6.418;2024-03-23T08:40:27;12.20;99.90
12115;DHT22;6121;49.810;6.418;2024-03-23T08:42:53;12.10;99.90
12115;DHT22;6121;49.810;6.418;2024-03-23T08:45:19;12.20;99.90
12115;DHT22;6121;49.810;6.418;2024-03-23T08:47:45;12.70;99.90
12115;DHT22;6121;49.810;6.418;2024-03-23T08:50:28;12.80;99.90
12115;DHT22;6121;49.810;6.418;2024-03-23T08:52:53;13.20;99.90
12115;DHT22;6121;49.810;6.418;2024-03-23T08:55:19;12.90;99.90
12115;DHT22;6121;49.810;6.418;2024-03-23T08:57:45;12.90;99.90
12115;DHT22;6121;49.810;6.418;2024-03-23T09:00:11;13.30;99.90
12115;DHT22;6121;49.810;6.418;2024-03-23T09:02:37;13.50;99.90
12115;DHT22;6121;49.810;6.418;2024-03-23T09:05:04;12.80;99.90
12115;DHT22;6121;49.810;6.418;2024-03-23T09:07:31;12.80;99.90
12115;DHT22;6121;49.810;6.418;2024-03-23T09:09:57;12.40;99.90
12115;DHT22;6121;49.810;6.418;2024-03-23T09:12:23;12.20;99.90
12115;DHT22;6121;49.810;6.418;2024-03-23T09:14:50;12.80;99.90
12115;DHT22;6121;49.810;6.418;2024-03-23T09:17:16;13.40;99.90
12115;DHT22;6121;49.810;6.418;2024-03-23T09:19:43;13.40;99.90
12115;DHT22;6121;49.810;6.418;2024-03-23T09:22:09;13.50;99.90
12115;DHT22;6121;49.810;6.418;2024-03-23T09:24:35;13.60;99.90
12115;DHT22;6121;49.810;6.418;2024-03-23T09:27:02;13.10;99.90
12115;DHT22;6121;49.810;6.418;2024-03-23T09:29:28;13.70;99.90
12115;DHT22;6121;49.810;6.418;2024-03-23T09:32:02;13.40;99.90
12115;DHT22;6121;49.810;6.418;2024-03-23T09:34:29;13.70;99.90
12115;DHT22;6121;49.810;6.418;2024-03-23T09:36:55;13.80;99.90
12115;DHT22;6121;49.810;6.418;2024-03-23T09:39:21;13.90;99.90
12115;DHT22;6121;49.810;6.418;2024-03-23T09:41:47;13.50;99.90
12115;DHT22;6121;49.810;6.418;2024-03-23T09:44:13;13.80;99.90
12115;DHT22;6121;49.810;6.418;2024-03-23T09:46:39;14.50;99.90
12115;DHT22;6121;49.810;6.418;2024-03-23T09:49:07;15.80;99.90
12115;DHT22;6121;49.810;6.418;2024-03-23T09:51:36;14.90;99.90
12115;DHT22;6121;49.810;6.418;2024-03-23T09:54:02;14.70;99.90
12115;DHT22;6121;49.810;6.418;2024-03-23T09:56:28;13.70;99.90
12115;DHT22;6121;49.810;6.418;2024-03-23T09:59:04;13.10;99.90
12115;DHT22;6121;49.810;6.418;2024-03-23T10:01:30;12.90;99.90
12115;DHT22;6121;49.810;6.418;2024-03-23T10:03:56;13.30;99.90
12115;DHT22;6121;49.810;6.418;2024-03-23T10:06:22;13.60;99.90
12115;DHT22;6121;49.810;6.418;2024-03-23T10:08:52;14.70;99.90
12115;DHT22;6121;49.810;6.418;2024-03-23T10:11:18;15.50;99.90
12115;DHT22;6121;49.810;6.418;2024-03-23T10:13:45;15.80;99.80
12115;DHT22;6121;49.810;6.418;2024-03-23T10:16:23;15.70;98.90
12115;DHT22;6121;49.810;6.418;2024-03-23T10:18:50;15.70;98.70
12115;DHT22;6121;49.810;6.418;2024-03-23T10:21:16;16.50;98.00
12115;DHT22;6121;49.810;6.418;2024-03-23T10:23:43;16.50;97.30
12115;DHT22;6121;49.810;6.418;2024-03-23T10:26:18;15.60;97.20
12115;DHT22;6121;49.810;6.418;2024-03-23T10:28:52;15.30;97.00
12115;DHT22;6121;49.810;6.418;2024-03-23T10:31:18;14.10;97.50
12115;DHT22;6121;49.810;6.418;2024-03-23T10:33:48;13.30;99.70
12115;DHT22;6121;49.810;6.418;2024-03-23T10:36:15;12.00;99.90
12115;DHT22;6121;49.810;6.418;2024-03-23T10:38:43;11.00;99.90
12115;DHT22;6121;49.810;6.418;2024-03-23T10:41:10;10.80;99.90
12115;DHT22;6121;49.810;6.418;2024-03-23T10:43:37;10.80;99.90
12115;DHT22;6121;49.810;6.418;2024-03-23T10:46:04;10.40;99.90
12115;DHT22;6121;49.810;6.418;2024-03-23T10:48:31;10.60;99.90
12115;DHT22;6121;49.810;6.418;2024-03-23T10:50:57;10.50;99.90
12115;DHT22;6121;49.810;6.418;2024-03-23T10:53:28;10.10;99.90
12115;DHT22;6121;49.810;6.418;2024-03-23T10:55:55;10.20;99.90
12115;DHT22;6121;49.810;6.418;2024-03-23T10:58:31;9.80;99.90
12115;DHT22;6121;49.810;6.418;2024-03-23T11:00:58;10.90;99.90
12115;DHT22;6121;49.810;6.418;2024-03-23T11:05:57;14.20;99.90
12115;DHT22;6121;49.810;6.418;2024-03-23T11:08:37;14.50;99.90
12115;DHT22;6121;49.810;6.418;2024-03-23T11:11:17;15.20;99.90
12115;DHT22;6121;49.810;6.418;2024-03-23T11:13:43;15.40;99.90
12115;DHT22;6121;49.810;6.418;2024-03-23T11:16:26;15.10;99.90
12115;DHT22;6121;49.810;6.418;2024-03-23T11:18:54;15.50;99.90
12115;DHT22;6121;49.810;6.418;2024-03-23T11:21:52;15.80;99.90
12115;DHT22;6121;49.810;6.418;2024-03-23T11:24:21;16.00;99.90
12115;DHT22;6121;49.810;6.418;2024-03-23T11:26:48;16.40;99.90
12115;DHT22;6121;49.810;6.418;2024-03-23T11:29:16;16.30;99.90
12115;DHT22;6121;49.810;6.418;2024-03-23T11:34:12;16.20;99.90
12115;DHT22;6121;49.810;6.418;2024-03-23T11:36:38;17.00;99.90
12115;DHT22;6121;49.810;6.418;2024-03-23T11:39:20;17.40;99.20
12115;DHT22;6121;49.810;6.418;2024-03-23T11:41:50;16.40;99.50
12115;DHT22;6121;49.810;6.418;2024-03-23T11:44:20;16.40;99.50
12115;DHT22;6121;49.810;6.418;2024-03-23T11:46:46;16.90;98.90
12115;DHT22;6121;49.810;6.418;2024-03-23T11:49:25;17.60;97.90
12115;DHT22;6121;49.810;6.418;2024-03-23T11:51:53;17.60;97.50
12115;DHT22;6121;49.810;6.418;2024-03-23T11:54:23;17.60;97.00
12115;DHT22;6121;49.810;6.418;2024-03-23T11:57:01;18.20;97.00
12115;DHT22;6121;49.810;6.418;2024-03-23T11:59:36;18.00;96.40
12115;DHT22;6121;49.810;6.418;2024-03-23T12:02:10;16.80;96.00
12115;DHT22;6121;49.810;6.418;2024-03-23T12:04:40;17.40;96.40
12115;DHT22;6121;49.810;6.418;2024-03-23T12:07:18;16.20;95.30
12115;DHT22;6121;49.810;6.418;2024-03-23T12:10:03;15.40;95.10
12115;DHT22;6121;49.810;6.418;2024-03-23T12:12:29;15.30;95.10
12115;DHT22;6121;49.810;6.418;2024-03-23T12:15:03;15.40;95.20
12115;DHT22;6121;49.810;6.418;2024-03-23T12:17:30;15.30;96.00
12115;DHT22;6121;49.810;6.418;2024-03-23T12:19:56;14.20;96.40
12115;DHT22;6121;49.810;6.418;2024-03-23T12:22:23;13.40;96.00
12115;DHT22;6121;49.810;6.418;2024-03-23T12:24:49;12.70;96.60
12115;DHT22;6121;49.810;6.418;2024-03-23T12:27:16;13.80;95.50
12115;DHT22;6121;49.810;6.418;2024-03-23T12:29:42;15.00;95.70
12115;DHT22;6121;49.810;6.418;2024-03-23T12:32:09;14.90;94.60
12115;DHT22;6121;49.810;6.418;2024-03-23T12:34:35;15.20;95.50
12115;DHT22;6121;49.810;6.418;2024-03-23T12:37:01;14.20;96.10
12115;DHT22;6121;49.810;6.418;2024-03-23T12:39:27;14.30;96.00
12115;DHT22;6121;49.810;6.418;2024-03-23T12:41:53;14.90;95.20
12115;DHT22;6121;49.810;6.418;2024-03-23T12:44:18;15.00;95.30
12115;DHT22;6121;49.810;6.418;2024-03-23T12:46:45;15.10;94.90
12115;DHT22;6121;49.810;6.418;2024-03-23T12:49:11;15.30;94.70
12115;DHT22;6121;49.810;6.418;2024-03-23T12:51:37;15.90;95.00
12115;DHT22;6121;49.810;6.418;2024-03-23T12:54:03;15.80;94.90
12115;DHT22;6121;49.810;6.418;2024-03-23T12:56:29;15.60;95.20
12115;DHT22;6121;49.810;6.418;2024-03-23T12:58:55;15.00;95.50
12115;DHT22;6121;49.810;6.418;2024-03-23T13:01:23;15.10;95.10
12115;DHT22;6121;49.810;6.418;2024-03-23T13:03:50;15.30;94.50
12115;DHT22;6121;49.810;6.418;2024-03-23T13:06:16;15.20;94.80
12115;DHT22;6121;49.810;6.418;2024-03-23T13:08:44;14.50;94.30
12115;DHT22;6121;49.810;6.418;2024-03-23T13:11:12;13.80;95.30
12115;DHT22;6121;49.810;6.418;2024-03-23T13:13:38;13.30;95.50
12115;DHT22;6121;49.810;6.418;2024-03-23T13:16:04;13.30;96.20
12115;DHT22;6121;49.810;6.418;2024-03-23T13:18:31;12.90;96.50
12115;DHT22;6121;49.810;6.418;2024-03-23T13:20:58;12.40;98.00
12115;DHT22;6121;49.810;6.418;2024-03-23T13:23:24;11.10;99.90
12115;DHT22;6121;49.810;6.418;2024-03-23T13:25:54;10.60;99.90
12115;DHT22;6121;49.810;6.418;2024-03-23T13:28:21;10.20;99.90
12115;DHT22;6121;49.810;6.418;2024-03-23T13:30:55;10.10;99.90
12115;DHT22;6121;49.810;6.418;2024-03-23T13:33:21;10.40;99.90
12115;DHT22;6121;49.810;6.418;2024-03-23T13:35:55;10.20;99.90
12115;DHT22;6121;49.810;6.418;2024-03-23T13:38:22;10.60;99.90
12115;DHT22;6121;49.810;6.418;2024-03-23T13:40:59;10.10;99.90
12115;DHT22;6121;49.810;6.418;2024-03-23T13:43:26;10.00;99.90
12115;DHT22;6121;49.810;6.418;2024-03-23T13:45:59;10.20;99.90
12115;DHT22;6121;49.810;6.418;2024-03-23T13:48:26;10.40;99.90
12115;DHT22;6121;49.810;6.418;2024-03-23T13:51:03;10.20;99.90
12115;DHT22;6121;49.810;6.418;2024-03-23T13:53:30;10.30;99.90
12115;DHT22;6121;49.810;6.418;2024-03-23T13:55:56;10.60;99.90
12115;DHT22;6121;49.810;6.418;2024-03-23T13:58:22;10.80;99.90
12115;DHT22;6121;49.810;6.418;2024-03-23T14:00:52;10.80;99.90
12115;DHT22;6121;49.810;6.418;2024-03-23T14:03:18;10.70;99.90
12115;DHT22;6121;49.810;6.418;2024-03-23T14:05:44;10.90;99.90
12115;DHT22;6121;49.810;6.418;2024-03-23T14:08:11;10.80;99.90
12115;DHT22;6121;49.810;6.418;2024-03-23T14:10:40;10.60;99.90
12115;DHT22;6121;49.810;6.418;2024-03-23T14:13:07;10.40;99.90
12115;DHT22;6121;49.810;6.418;2024-03-23T14:15:33;10.10;99.90
12115;DHT22;6121;49.810;6.418;2024-03-23T14:17:59;10.20;99.90
12115;DHT22;6121;49.810;6.418;2024-03-23T14:20:25;9.90;99.90
12115;DHT22;6121;49.810;6.418;2024-03-23T14:22:52;9.80;99.90
12115;DHT22;6121;49.810;6.418;2024-03-23T14:25:18;9.50;99.90
12115;DHT22;6121;49.810;6.418;2024-03-23T14:27:45;9.30;99.90
12115;DHT22;6121;49.810;6.418;2024-03-23T14:30:11;9.10;99.90
12115;DHT22;6121;49.810;6.418;2024-03-23T14:32:38;9.20;99.90
12115;DHT22;6121;49.810;6.418;2024-03-23T14:35:04;9.30;99.90
12115;DHT22;6121;49.810;6.418;2024-03-23T14:37:31;9.20;99.90
12115;DHT22;6121;49.810;6.418;2024-03-23T14:39:57;9.30;99.90
12115;DHT22;6121;49.810;6.418;2024-03-23T14:42:24;9.30;99.90
12115;DHT22;6121;49.810;6.418;2024-03-23T14:44:50;9.70;99.90
12115;DHT22;6121;49.810;6.418;2024-03-23T14:47:17;9.70;99.90
12115;DHT22;6121;49.810;6.418;2024-03-23T14:49:44;9.60;99.90
12115;DHT22;6121;49.810;6.418;2024-03-23T14:52:14;9.70;99.90
12115;DHT22;6121;49.810;6.418;2024-03-23T14:54:40;9.60;99.90
12115;DHT22;6121;49.810;6.418;2024-03-23T14:57:06;9.40;99.90
12115;DHT22;6121;49.810;6.418;2024-03-23T14:59:35;10.10;99.90
12115;DHT22;6121;49.810;6.418;2024-03-23T15:02:01;9.70;99.90
12115;DHT22;6121;49.810;6.418;2024-03-23T15:04:27;9.80;99.90
12115;DHT22;6121;49.810;6.418;2024-03-23T15:06:53;9.80;99.90
12115;DHT22;6121;49.810;6.418;2024-03-23T15:09:19;9.40;99.90
12115;DHT22;6121;49.810;6.418;2024-03-23T15:11:45;9.70;99.90
12115;DHT22;6121;49.810;6.418;2024-03-23T15:14:11;9.70;99.90
12115;DHT22;6121;49.810;6.418;2024-03-23T15:16:37;9.90;99.90
12115;DHT22;6121;49.810;6.418;2024-03-23T15:19:03;9.60;99.90
12115;DHT22;6121;49.810;6.418;2024-03-23T15:21:31;9.60;99.90
12115;DHT22;6121;49.810;6.418;2024-03-23T15:23:58;9.50;99.90
12115;DHT22;6121;49.810;6.418;2024-03-23T15:26:33;9.30;99.90
12115;DHT22;6121;49.810;6.418;2024-03-23T15:28:59;9.40;99.90
12115;DHT22;6121;49.810;6.418;2024-03-23T15:31:25;9.20;99.90
12115;DHT22;6121;49.810;6.418;2024-03-23T15:33:51;9.40;99.90
12115;DHT22;6121;49.810;6.418;2024-03-23T15:36:17;9.60;99.90
12115;DHT22;6121;49.810;6.418;2024-03-23T15:38:44;9.50;99.90
12115;DHT22;6121;49.810;6.418;2024-03-23T15:41:11;9.40;99.90
12115;DHT22;6121;49.810;6.418;2024-03-23T15:43:37;9.70;99.90
12115;DHT22;6121;49.810;6.418;2024-03-23T15:46:05;9.30;99.90
12115;DHT22;6121;49.810;6.418;2024-03-23T15:48:36;9.20;99.90
12115;DHT22;6121;49.810;6.418;2024-03-23T15:51:03;9.30;99.90
12115;DHT22;6121;49.810;6.418;2024-03-23T15:53:30;8.90;99.90
12115;DHT22;6121;49.810;6.418;2024-03-23T15:55:57;9.30;99.90
12115;DHT22;6121;49.810;6.418;2024-03-23T15:58:23;8.90;99.90
12115;DHT22;6121;49.810;6.418;2024-03-23T16:01:00;9.10;99.90
12115;DHT22;6121;49.810;6.418;2024-03-23T16:03:26;9.10;99.90
12115;DHT22;6121;49.810;6.418;2024-03-23T16:05:57;9.00;99.90
12115;DHT22;6121;49.810;6.418;2024-03-23T16:08:24;9.30;99.90
12115;DHT22;6121;49.810;6.418;2024-03-23T16:10:51;9.30;99.90
12115;DHT22;6121;49.810;6.418;2024-03-23T16:13:17;8.90;99.90
12115;DHT22;6121;49.810;6.418;2024-03-23T16:15:44;8.90;99.90
12115;DHT22;6121;49.810;6.418;2024-03-23T16:18:10;9.10;99.90
12115;DHT22;6121;49.810;6.418;2024-03-23T16:20:36;8.80;99.90
12115;DHT22;6121;49.810;6.418;2024-03-23T16:23:03;9.30;99.90
12115;DHT22;6121;49.810;6.418;2024-03-23T16:25:30;8.80;99.90
12115;DHT22;6121;49.810;6.418;2024-03-23T16:27:56;8.80;99.90
12115;DHT22;6121;49.810;6.418;2024-03-23T16:30:22;8.70;99.90
12115;DHT22;6121;49.810;6.418;2024-03-23T16:32:48;8.60;99.90
12115;DHT22;6121;49.810;6.418;2024-03-23T16:35:14;8.40;99.90
12115;DHT22;6121;49.810;6.418;2024-03-23T16:37:40;8.60;99.90
12115;DHT22;6121;49.810;6.418;2024-03-23T16:40:07;8.40;99.90
12115;DHT22;6121;49.810;6.418;2024-03-23T16:42:37;8.40;99.90
12115;DHT22;6121;49.810;6.418;2024-03-23T16:45:04;8.60;99.90
12115;DHT22;6121;49.810;6.418;2024-03-23T16:47:30;8.30;99.90
12115;DHT22;6121;49.810;6.418;2024-03-23T16:49:56;8.20;99.90
12115;DHT22;6121;49.810;6.418;2024-03-23T16:52:22;8.20;99.90